Main page
METAR-TAF:

METAR-TAF

Airports :

Niederstetten, Germany

Niederstetten Air Base

latitude: 49-24N, longitude: 009-58E, elevation: 468 m

Current weather observation

The report was made 39 minutes ago, at 18:37 UTC
Wind 2 kt from the North/Northwest
Temperature 3°C
Humidity 100%
Pressure 1025 hPa
Visibility: 0700 m
Overcast at a height of 100 ft
fog

METAR: ETHN 171837Z 33002KT 0700 FG OVC001 03/03 Q1025 RED

Time: 20:16 (19:16 UTC)

Forecast

The report was made 8 hours and 41 minutes ago, at 10:35 UTC
Forecast valid from 17 at 09 UTC to 17 at 18 UTC
Wind 5 kt from the Southwest
Visibility: 0800 m
Overcast at a height of 100 ft
light drizzle
Probability 30%
from 17 at 12 UTC to 17 at 15 UTC
Wind 5 kt from the West
Visibility: 1100 m
Broken clouds at a height of 300 ft
mist

TAF: ETHN 171035Z 1709/1718 23005KT 0800 -DZ OVC001 PROB30 1712/1715 27005KT 3000 BR BKN003 CANCEL 1100

Weather observations and forecasts of more than 4000 airports (METAR and TAF reports).

The available stations are represented by yellow and red dots on the map.

Hover mouse over dot to see the name of the station.

Then click to see weather observations and forecasts.

To change the map : click on the green buttons with a black cross to zoom in, on the green button with a dash to zoom out, or on the green arrows for adjacent maps.


METAR-TAF: